Time;durP1;ratioP1;P1;durP2;ratioP2;P2;SDS_P1;SDS_P2;PMS_P1;PMS_P2;Temp;Humidity;BMP_temperature;BMP_pressure;BME280_temperature;BME280_humidity;BME280_pressure;Samples;Min_cycle;Max_cycle;Signal;HPM_P1;HPM_P2
2022/07/30 00:02:10;;;;;;;5.38;4.15;;;;;;;25.74;36.04;101279.50;5072373;28;20064;-73
2022/07/30 00:04:38;;;;;;;5.18;3.75;;;;;;;25.68;35.64;101275.59;5053120;28;20505;-73
2022/07/30 00:07:06;;;;;;;6.07;3.95;;;;;;;25.67;35.79;101275.75;5054623;28;20375;-73
2022/07/30 00:09:34;;;;;;;4.68;3.80;;;;;;;25.63;35.82;101289.19;5053392;28;20045;-73
2022/07/30 00:12:04;;;;;;;6.65;4.18;;;;;;;25.61;36.06;101270.97;5054744;28;20494;-73
2022/07/30 00:14:33;;;;;;;5.18;4.18;;;;;;;25.57;36.22;101273.22;5053252;28;20167;-74
2022/07/30 00:17:01;;;;;;;4.57;3.80;;;;;;;25.55;35.90;101269.75;5055256;28;20052;-74
2022/07/30 00:19:32;;;;;;;5.60;4.07;;;;;;;25.55;36.03;101268.91;5053195;28;20441;-74
2022/07/30 00:22:00;;;;;;;5.70;3.90;;;;;;;25.49;36.55;101267.75;5054437;28;20107;-74
2022/07/30 00:24:28;;;;;;;7.10;4.22;;;;;;;25.47;36.32;101269.84;5054189;28;20049;-74
2022/07/30 00:26:56;;;;;;;5.97;3.85;;;;;;;25.44;36.23;101267.47;5055256;28;20116;-74
2022/07/30 00:29:25;;;;;;;4.70;3.70;;;;;;;25.40;36.60;101269.75;5052395;28;20115;-74
2022/07/30 00:31:55;;;;;;;5.82;4.05;;;;;;;25.37;36.62;101261.78;5055038;28;20690;-74
2022/07/30 00:34:23;;;;;;;5.18;3.85;;;;;;;25.35;36.33;101268.59;5036072;28;20493;-73
2022/07/30 00:36:53;;;;;;;6.18;4.20;;;;;;;25.34;36.89;101264.94;5054052;28;20040;-73
2022/07/30 00:39:21;;;;;;;5.65;4.50;;;;;;;25.29;36.71;101264.63;5034903;28;20564;-73
2022/07/30 00:41:56;;;;;;;6.07;4.03;;;;;;;25.29;37.07;101259.06;5054726;28;20528;-74
2022/07/30 00:44:24;;;;;;;6.25;4.05;;;;;;;25.23;36.63;101262.63;5053517;28;20049;-73
2022/07/30 00:46:52;;;;;;;6.13;4.25;;;;;;;25.21;36.92;101264.72;5054211;28;20051;-74
2022/07/30 00:49:20;;;;;;;5.63;4.00;;;;;;;25.18;37.03;101265.09;5053144;28;20052;-73
2022/07/30 00:51:49;;;;;;;6.85;4.03;;;;;;;25.16;36.88;101266.34;5054816;28;20127;-73
2022/07/30 00:54:19;;;;;;;6.50;4.15;;;;;;;25.17;37.26;101268.06;5053493;28;20064;-73
2022/07/30 00:56:48;;;;;;;5.10;3.92;;;;;;;25.10;36.83;101264.31;5053617;28;20474;-73
2022/07/30 00:59:16;;;;;;;5.60;4.00;;;;;;;25.09;36.92;101268.13;5032398;28;20064;-74
2022/07/30 01:01:44;;;;;;;5.25;4.03;;;;;;;25.06;37.37;101268.50;5033552;28;20135;-74
2022/07/30 01:04:12;;;;;;;5.25;4.05;;;;;;;25.04;37.13;101267.84;5050643;28;20044;-73
2022/07/30 01:06:40;;;;;;;4.93;3.70;;;;;;;25.02;37.06;101279.16;5033271;28;20103;-73
2022/07/30 01:09:08;;;;;;;6.38;4.13;;;;;;;24.99;37.10;101273.94;5032312;28;20140;-74
2022/07/30 01:11:40;;;;;;;5.05;3.63;;;;;;;24.99;37.44;101273.94;5051340;28;20141;-74
2022/07/30 01:14:09;;;;;;;5.07;3.75;;;;;;;24.94;36.91;101274.53;5049301;28;20053;-73
2022/07/30 01:16:40;;;;;;;5.18;3.67;;;;;;;24.93;37.30;101277.47;5051081;28;20045;-73
2022/07/30 01:22:19;;;;;;;5.40;3.65;;;;;;;24.87;37.45;101267.09;5033458;28;20052;-73
2022/07/30 01:24:56;;;;;;;5.85;3.97;;;;;;;24.84;37.91;101270.22;5031883;28;20048;-74
2022/07/30 01:27:28;;;;;;;5.05;3.95;;;;;;;24.81;37.48;101274.22;5033762;28;20122;-74
2022/07/30 01:29:58;;;;;;;6.18;4.05;;;;;;;24.75;37.79;101266.63;5047310;28;20433;-74
2022/07/30 01:32:28;;;;;;;4.65;3.65;;;;;;;24.75;37.35;101266.63;5032528;28;20132;-74
2022/07/30 01:34:58;;;;;;;5.57;3.42;;;;;;;24.73;37.50;101273.41;5048384;28;20498;-74
2022/07/30 01:37:28;;;;;;;6.18;3.90;;;;;;;24.71;37.42;101269.97;5033201;28;20100;-74
2022/07/30 01:39:56;;;;;;;5.95;4.00;;;;;;;24.67;37.76;101269.47;5031131;28;20045;-73
2022/07/30 01:42:28;;;;;;;6.65;4.05;;;;;;;24.67;37.92;101271.38;5050051;28;20159;-74
2022/07/30 01:44:58;;;;;;;5.93;4.00;;;;;;;24.59;37.83;101270.41;5049468;28;20045;-74
2022/07/30 01:47:27;;;;;;;6.25;4.50;;;;;;;24.58;37.57;101277.00;5032757;28;20076;-75
2022/07/30 01:49:57;;;;;;;5.85;4.13;;;;;;;24.56;37.61;101273.53;5030665;28;20460;-74
2022/07/30 01:52:29;;;;;;;5.82;4.00;;;;;;;24.55;37.88;101279.25;5032518;28;20094;-74
2022/07/30 01:54:59;;;;;;;5.47;4.07;;;;;;;24.49;38.04;101285.56;5049474;28;20497;-74
2022/07/30 01:57:29;;;;;;;6.25;4.05;;;;;;;24.50;37.58;101281.72;5032419;28;20049;-74
2022/07/30 02:00:02;;;;;;;6.80;4.10;;;;;;;24.48;37.77;101283.81;5031585;28;20049;-74
2022/07/30 02:02:43;;;;;;;6.20;4.32;;;;;;;24.43;37.92;101283.50;5050236;28;20482;-74
2022/07/30 02:05:12;;;;;;;5.80;4.40;;;;;;;24.41;37.58;101283.69;5047169;28;20053;-74
2022/07/30 02:07:48;;;;;;;5.50;3.95;;;;;;;24.43;38.47;101291.84;5032154;28;20041;-74
2022/07/30 02:10:23;;;;;;;5.43;4.22;;;;;;;24.39;38.10;101288.56;5030417;28;20045;-74
2022/07/30 02:12:56;;;;;;;5.22;3.88;;;;;;;24.37;38.11;101292.56;5049922;28;20052;-74
2022/07/30 02:15:28;;;;;;;5.65;4.18;;;;;;;24.33;37.79;101288.41;5031129;28;20346;-74
2022/07/30 02:18:02;;;;;;;6.65;4.40;;;;;;;24.32;37.95;101290.31;5050175;28;20501;-74
2022/07/30 02:20:35;;;;;;;5.30;4.20;;;;;;;24.31;38.35;101291.38;5030657;28;20061;-73
2022/07/30 02:23:10;;;;;;;7.57;4.20;;;;;;;24.29;38.14;101287.94;5031873;28;20048;-74
2022/07/30 02:25:44;;;;;;;5.97;4.10;;;;;;;24.28;37.97;101291.75;5048452;28;20099;-74
2022/07/30 02:28:15;;;;;;;6.30;4.40;;;;;;;24.27;38.37;101287.25;5031560;28;20044;-73
2022/07/30 02:30:47;;;;;;;6.13;4.65;;;;;;;24.25;37.83;101295.75;5030853;28;20407;-73
2022/07/30 02:33:19;;;;;;;5.60;4.10;;;;;;;24.22;37.96;101296.09;5031033;28;20052;-73
2022/07/30 02:35:49;;;;;;;5.88;4.18;;;;;;;24.20;38.32;101300.09;5048928;28;20049;-74
2022/07/30 02:38:19;;;;;;;4.97;4.18;;;;;;;24.20;38.07;101300.97;5048709;28;20045;-74
2022/07/30 02:40:49;;;;;;;6.78;4.28;;;;;;;24.18;37.91;101299.38;5048792;28;20506;-74
2022/07/30 02:43:23;;;;;;;7.00;4.65;;;;;;;24.17;38.14;101304.06;5031144;28;20045;-73
2022/07/30 02:45:52;;;;;;;6.15;4.05;;;;;;;24.14;37.96;101311.88;5030500;28;20056;-73
2022/07/30 02:48:26;;;;;;;6.53;4.27;;;;;;;24.11;38.35;101306.72;5047152;28;20064;-73
2022/07/30 02:51:04;;;;;;;5.22;3.95;;;;;;;24.10;38.32;101307.75;5030722;28;20044;-73
2022/07/30 02:53:33;;;;;;;6.72;4.25;;;;;;;24.09;37.93;101308.78;5030466;28;20072;-73
2022/07/30 02:56:02;;;;;;;5.70;4.30;;;;;;;24.07;37.95;101308.97;5046614;28;20445;-73
2022/07/30 02:58:36;;;;;;;5.55;4.32;;;;;;;24.07;38.11;101306.19;5030728;28;20052;-74
2022/07/30 03:01:05;;;;;;;5.85;4.35;;;;;;;24.03;38.15;101303.97;5047039;28;20434;-73
2022/07/30 03:03:35;;;;;;;6.85;4.32;;;;;;;24.00;38.12;101304.31;5030483;28;21688;-73
2022/07/30 03:06:07;;;;;;;5.82;4.25;;;;;;;24.01;37.93;101308.81;5030153;28;20124;-73
2022/07/30 03:08:36;;;;;;;6.72;4.38;;;;;;;23.98;37.98;101309.16;5030382;28;20037;-73
2022/07/30 03:11:05;;;;;;;6.80;4.90;;;;;;;23.96;38.04;101317.69;5048498;28;20041;-73
2022/07/30 03:13:35;;;;;;;5.05;4.15;;;;;;;23.97;38.34;101312.97;5046383;28;20365;-73
2022/07/30 03:16:07;;;;;;;6.22;4.40;;;;;;;23.94;38.13;101314.22;5030400;28;20085;-73
2022/07/30 03:18:37;;;;;;;;;;;;;;;23.64;38.80;101314.97;5030574;28;20090;-73
2022/07/30 03:21:08;;;;;;;5.45;3.80;;;;;;;23.88;38.40;101313.00;5029050;28;20011;-74
2022/07/30 03:23:37;;;;;;;6.43;4.00;;;;;;;23.88;38.39;101312.16;5047353;28;20048;-73
2022/07/30 03:26:08;;;;;;;5.80;4.28;;;;;;;23.88;38.08;101313.00;5030129;28;20510;-74
2022/07/30 03:28:39;;;;;;;7.40;4.40;;;;;;;23.87;38.60;101319.63;5029429;28;20045;-74
2022/07/30 03:31:09;;;;;;;5.70;4.22;;;;;;;23.82;38.33;101307.31;5046743;28;20096;-74
2022/07/30 03:33:40;;;;;;;5.68;4.38;;;;;;;23.82;38.66;101313.72;5010452;28;20052;-73
2022/07/30 03:36:09;;;;;;;6.13;4.60;;;;;;;23.81;38.31;101314.75;5026359;28;20057;-73
2022/07/30 03:38:39;;;;;;;5.70;4.70;;;;;;;23.78;38.25;101311.50;5029388;28;20072;-73
2022/07/30 03:41:08;;;;;;;7.20;4.85;;;;;;;23.76;38.52;101310.81;5030025;28;20041;-73
2022/07/30 03:43:39;;;;;;;6.85;4.72;;;;;;;23.77;38.97;101318.09;5029970;28;20138;-74
2022/07/30 03:46:10;;;;;;;6.90;4.55;;;;;;;23.71;38.70;101316.88;5046608;28;20429;-73
2022/07/30 03:48:42;;;;;;;6.35;4.47;;;;;;;23.70;38.63;101312.38;5030077;28;20045;-73
2022/07/30 03:51:11;;;;;;;6.38;4.70;;;;;;;23.69;38.90;101326.41;5047830;28;20057;-73
2022/07/30 03:53:42;;;;;;;6.75;4.75;;;;;;;23.67;38.51;101329.34;5029321;28;20040;-73
2022/07/30 03:56:48;;;;;;;6.18;4.43;;;;;;;23.62;38.52;101323.50;4966206;28;20444;-73
2022/07/30 03:59:40;;;;;;;6.18;4.40;;;;;;;23.62;38.69;101326.25;4950025;28;20047;-73
2022/07/30 04:02:08;;;;;;;6.43;4.55;;;;;;;23.60;38.58;101330.25;5005238;28;20049;-73
2022/07/30 04:04:56;;;;;;;5.82;4.75;;;;;;;23.57;39.24;101337.00;5026558;28;20052;-73
2022/07/30 04:07:24;;;;;;;5.40;4.25;;;;;;;23.57;39.03;101338.91;5009911;28;20514;-73
2022/07/30 04:09:52;;;;;;;7.03;4.53;;;;;;;23.54;38.80;101340.13;5008835;28;20108;-73
2022/07/30 04:12:52;;;;;;;6.40;4.32;;;;;;;23.50;39.18;101345.16;5005252;28;20053;-73
2022/07/30 04:15:24;;;;;;;6.57;5.07;;;;;;;23.51;39.49;101346.88;5042734;28;20052;-73
2022/07/30 04:18:15;;;;;;;8.00;4.70;;;;;;;23.49;39.19;101348.09;5030050;28;20055;-73
2022/07/30 04:20:47;;;;;;;7.80;4.75;;;;;;;23.49;39.35;101348.97;5046637;28;20051;-73
2022/07/30 04:23:15;;;;;;;5.90;4.70;;;;;;;23.44;39.11;101359.69;5047200;28;20033;-73
2022/07/30 04:25:44;;;;;;;6.45;4.50;;;;;;;23.44;39.30;101365.22;5029873;28;20048;-73
2022/07/30 04:28:14;;;;;;;5.90;4.45;;;;;;;23.46;39.25;101363.16;5047601;28;20096;-73
2022/07/30 04:30:43;;;;;;;7.78;5.10;;;;;;;23.46;39.81;101373.38;5029472;28;20130;-73
2022/07/30 04:33:11;;;;;;;7.78;5.45;;;;;;;23.43;39.92;101374.56;5026675;28;20048;-73
2022/07/30 04:36:07;;;;;;;6.60;5.25;;;;;;;23.42;39.89;101374.75;5013013;28;20046;-73
2022/07/30 04:38:37;;;;;;;7.05;5.50;;;;;;;23.42;39.85;101381.16;5013320;28;20037;-73
2022/07/30 04:41:06;;;;;;;7.53;5.25;;;;;;;23.42;39.65;101381.16;5029433;28;20041;-73
2022/07/30 04:43:54;;;;;;;8.23;5.60;;;;;;;23.41;40.06;101386.84;5030085;28;20084;-73
2022/07/30 04:46:23;;;;;;;7.32;5.78;;;;;;;23.44;39.94;101392.06;5030307;28;20099;-73
2022/07/30 04:48:53;;;;;;;7.90;6.05;;;;;;;23.42;40.26;101388.59;5030535;28;20088;-73
2022/07/30 04:51:25;;;;;;;8.50;5.65;;;;;;;23.45;40.64;101389.13;5031374;28;20041;-73
2022/07/30 04:53:55;;;;;;;7.57;5.57;;;;;;;23.43;40.41;101390.34;5030005;28;20076;-73
2022/07/30 04:56:24;;;;;;;8.60;6.10;;;;;;;23.46;40.63;101396.41;5031258;28;20041;-73
2022/07/30 04:58:53;;;;;;;9.40;6.03;;;;;;;23.47;40.68;101400.88;5028649;28;20045;-74
2022/07/30 05:01:26;;;;;;;8.05;6.07;;;;;;;23.51;41.13;101404.22;5030003;28;20409;-73
2022/07/30 05:04:09;;;;;;;9.35;5.90;;;;;;;23.50;40.82;101399.72;5011696;28;20056;-73
2022/07/30 05:06:39;;;;;;;7.75;6.35;;;;;;;23.51;40.37;101409.78;5013788;28;20048;-73
2022/07/30 05:09:08;;;;;;;8.18;6.30;;;;;;;23.54;40.62;101405.78;5023871;28;20124;-73
2022/07/30 05:11:36;;;;;;;8.68;6.25;;;;;;;23.57;41.15;101397.09;5052780;28;20045;-73
2022/07/30 05:14:04;;;;;;;9.20;6.80;;;;;;;23.59;41.49;101398.69;5052014;28;20053;-73
2022/07/30 05:16:34;;;;;;;10.77;6.65;;;;;;;23.68;41.50;101396.78;5052444;28;20044;-73
2022/07/30 05:19:03;;;;;;;8.45;6.32;;;;;;;23.73;41.58;101403.50;5051731;28;20036;-73
2022/07/30 05:21:35;;;;;;;;;;;;;;;23.51;41.79;101410.63;5037478;28;20095;-72
2022/07/30 05:24:03;;;;;;;6.95;5.57;;;;;;;23.86;41.14;101403.88;5031772;28;19921;-73
2022/07/30 05:26:36;;;;;;;8.35;5.82;;;;;;;23.99;41.51;101405.22;5049441;28;20103;-73
2022/07/30 05:29:05;;;;;;;9.73;6.82;;;;;;;24.12;40.94;101403.63;5030377;28;20048;-73
2022/07/30 05:31:55;;;;;;;9.90;6.50;;;;;;;24.28;40.95;101408.31;5068106;28;20048;-72
2022/07/30 05:34:30;;;;;;;8.00;6.35;;;;;;;24.40;40.68;101404.09;5049446;28;20094;-73
2022/07/30 05:36:58;;;;;;;8.55;6.78;;;;;;;24.55;40.86;101410.63;5033034;28;20052;-72
2022/07/30 05:39:26;;;;;;;10.15;6.40;;;;;;;24.72;40.51;101416.09;5031553;28;20497;-73
2022/07/30 05:41:55;;;;;;;10.15;7.03;;;;;;;24.85;40.56;101410.84;5050522;28;20099;-73
2022/07/30 05:44:27;;;;;;;11.85;6.95;;;;;;;24.94;40.33;101421.75;5030781;28;20311;-73
2022/07/30 05:46:56;;;;;;;10.48;7.15;;;;;;;25.09;39.71;101423.75;5032409;28;20052;-72
2022/07/30 05:49:25;;;;;;;9.95;6.80;;;;;;;25.15;39.99;101420.22;5031641;28;20133;-73
2022/07/30 05:52:00;;;;;;;10.35;6.70;;;;;;;25.21;39.78;101431.47;5032408;28;20041;-73
2022/07/30 05:54:28;;;;;;;9.13;7.28;;;;;;;25.24;39.80;101431.13;5031739;28;20099;-72
2022/07/30 05:57:15;;;;;;;10.45;7.07;;;;;;;25.25;39.72;101431.97;5065101;28;20539;-73
2022/07/30 05:59:43;;;;;;;11.05;6.85;;;;;;;25.26;39.55;101437.34;5051040;28;20044;-73
2022/07/30 06:02:45;;;;;;;9.90;7.28;;;;;;;25.24;39.66;101431.13;5069679;28;20040;-73
2022/07/30 06:05:15;;;;;;;10.80;7.97;;;;;;;25.21;39.38;101433.38;5068779;28;20044;-73
2022/07/30 06:07:43;;;;;;;10.80;6.97;;;;;;;25.19;39.50;101439.16;5051424;28;20044;-73
2022/07/30 06:10:12;;;;;;;10.90;8.05;;;;;;;25.15;39.84;101429.44;5067345;28;20570;-73
2022/07/30 06:12:41;;;;;;;10.95;8.13;;;;;;;25.13;39.44;101444.56;5052286;28;20287;-73
2022/07/30 06:15:10;;;;;;;12.00;8.70;;;;;;;25.08;39.51;101450.66;5050933;28;20098;-73
2022/07/30 06:17:45;;;;;;;11.48;8.05;;;;;;;25.06;40.43;101449.97;5051342;28;20048;-72
2022/07/30 06:20:56;;;;;;;11.38;7.78;;;;;;;24.94;40.29;101445.91;5056250;28;20040;-72
2022/07/30 06:23:44;;;;;;;11.95;8.18;;;;;;;24.89;40.43;101451.06;5040886;28;20124;-72
2022/07/30 06:26:41;;;;;;;12.70;8.40;;;;;;;24.84;40.08;101453.53;5039577;28;20053;-72
2022/07/30 06:29:09;;;;;;;14.85;9.38;;;;;;;24.81;40.53;101451.13;5034851;28;20041;-72
2022/07/30 06:31:40;;;;;;;12.57;9.30;;;;;;;24.76;40.85;101454.44;5051534;28;20071;-73
2022/07/30 06:34:12;;;;;;;12.30;8.45;;;;;;;24.75;40.97;101451.84;5049708;28;20094;-65
2022/07/30 06:36:42;;;;;;;12.73;8.95;;;;;;;24.67;41.00;101455.53;5032161;28;20418;-66
2022/07/30 06:39:21;;;;;;;11.52;8.40;;;;;;;24.64;40.58;101461.44;5029834;28;20056;-71
2022/07/30 06:42:27;;;;;;;11.38;7.32;;;;;;;24.59;40.86;101469.44;5049663;28;20539;-72
2022/07/30 06:45:15;;;;;;;10.30;7.70;;;;;;;24.57;40.89;101465.97;5029650;28;20045;-72
2022/07/30 06:48:01;;;;;;;9.63;7.88;;;;;;;24.53;40.78;101467.38;5049256;28;20401;-72
2022/07/30 06:50:33;;;;;;;11.23;7.60;;;;;;;24.53;41.19;101465.47;5026631;28;20463;-72
2022/07/30 06:53:01;;;;;;;11.88;8.40;;;;;;;24.49;41.33;101475.19;5030941;28;20049;-71
2022/07/30 06:55:46;;;;;;;12.40;7.55;;;;;;;24.45;41.44;101473.84;5030095;28;20501;-70
2022/07/30 06:58:14;;;;;;;11.65;7.45;;;;;;;24.44;41.03;101474.88;5029342;28;20097;-72
2022/07/30 07:01:11;;;;;;;11.15;7.53;;;;;;;24.43;41.10;101475.03;5055658;28;20520;-72
2022/07/30 07:03:39;;;;;;;10.10;7.15;;;;;;;24.42;41.47;101479.72;5034053;28;20048;-73
2022/07/30 07:06:09;;;;;;;9.82;7.13;;;;;;;24.46;41.63;101486.63;5027085;28;20045;-72
2022/07/30 07:08:38;;;;;;;8.20;6.40;;;;;;;24.46;41.96;101481.09;5042187;28;20477;-72
2022/07/30 07:11:08;;;;;;;9.90;7.30;;;;;;;24.51;41.37;101483.34;5046722;28;20509;-73
2022/07/30 07:13:49;;;;;;;9.77;6.38;;;;;;;24.57;41.81;101480.72;5029907;28;20047;-72
2022/07/30 07:16:25;;;;;;;9.63;6.93;;;;;;;24.67;41.70;101488.84;5030292;28;20132;-72
2022/07/30 07:18:55;;;;;;;10.38;6.95;;;;;;;24.77;42.02;101491.44;5029540;28;20124;-73
2022/07/30 07:21:25;;;;;;;11.15;7.35;;;;;;;24.90;41.70;101486.16;5027162;28;20045;-72
2022/07/30 07:23:55;;;;;;;9.05;6.88;;;;;;;25.02;41.64;101485.63;5009317;28;20041;-72
2022/07/30 07:26:41;;;;;;;9.50;6.70;;;;;;;25.17;41.26;101485.72;5029080;28;20052;-72
2022/07/30 07:29:10;;;;;;;9.50;6.72;;;;;;;25.33;40.99;101487.53;5026131;28;20136;-73
2022/07/30 07:31:38;;;;;;;10.13;7.28;;;;;;;25.48;40.54;101487.59;5026661;28;20045;-72
2022/07/30 07:34:27;;;;;;;8.38;6.43;;;;;;;25.63;40.26;101489.41;5009739;28;20073;-72
2022/07/30 07:36:56;;;;;;;8.77;6.43;;;;;;;25.80;40.00;101490.16;5026705;28;20073;-72
2022/07/30 07:39:25;;;;;;;9.93;6.72;;;;;;;25.91;39.78;101489.72;5009330;28;20069;-72
2022/07/30 07:41:53;;;;;;;7.97;6.63;;;;;;;26.04;39.77;101501.06;5028095;28;20045;-72
2022/07/30 07:44:23;;;;;;;11.02;7.55;;;;;;;26.17;39.36;101499.59;5041325;28;20044;-72
2022/07/30 07:46:51;;;;;;;9.68;7.25;;;;;;;26.29;39.55;101503.66;5049748;28;20049;-72
2022/07/30 07:49:20;;;;;;;11.18;7.07;;;;;;;26.43;39.52;101500.91;5065931;28;20045;-72
2022/07/30 07:51:52;;;;;;;8.95;6.22;;;;;;;26.55;39.38;101500.44;5050082;28;20106;-72
2022/07/30 07:54:22;;;;;;;8.05;6.68;;;;;;;26.73;39.21;101496.22;5048239;28;20489;-72
2022/07/30 07:56:54;;;;;;;;;;;;;;;26.56;39.56;101486.31;5050889;28;20073;-72
2022/07/30 07:59:37;;;;;;;8.10;5.78;;;;;;;27.01;39.04;101501.13;5032227;28;19927;-72
2022/07/30 08:02:13;;;;;;;9.93;6.47;;;;;;;27.20;38.52;101495.78;5049812;28;20040;-72
2022/07/30 08:04:52;;;;;;;8.40;6.07;;;;;;;27.38;38.29;101502.88;5049091;28;20048;-72
2022/07/30 08:07:26;;;;;;;8.88;5.97;;;;;;;27.54;38.03;101497.06;5068184;28;20061;-72
2022/07/30 08:10:28;;;;;;;8.30;5.05;;;;;;;27.74;37.60;101495.38;5015126;28;20053;-72
2022/07/30 08:13:14;;;;;;;6.35;4.40;;;;;;;27.88;37.79;101496.34;5071403;28;20099;-72
2022/07/30 08:16:21;;;;;;;7.72;4.57;;;;;;;28.07;37.82;101498.47;5071603;28;20126;-72
2022/07/30 08:19:10;;;;;;;7.07;4.88;;;;;;;28.24;37.03;101488.78;4989315;28;20041;-72
2022/07/30 08:21:48;;;;;;;5.75;4.38;;;;;;;28.42;36.95;101481.78;5047618;28;20414;-72
2022/07/30 08:24:17;;;;;;;7.03;4.97;;;;;;;28.59;36.75;101484.06;5029659;28;20056;-71
2022/07/30 08:26:47;;;;;;;6.82;4.95;;;;;;;28.77;36.35;101478.84;5031953;28;20072;-72
2022/07/30 08:29:15;;;;;;;6.85;4.63;;;;;;;28.91;36.31;101487.31;5028333;28;20129;-72
2022/07/30 08:31:45;;;;;;;7.68;4.63;;;;;;;29.05;36.12;101475.97;5030142;28;20045;-72
2022/07/30 08:34:13;;;;;;;7.00;4.80;;;;;;;29.19;35.79;101487.19;5029342;28;20518;-72
2022/07/30 08:36:41;;;;;;;8.43;5.00;;;;;;;29.33;35.39;101484.22;5030293;28;20033;-72
2022/07/30 08:39:09;;;;;;;7.30;4.43;;;;;;;29.47;35.28;101490.78;5045747;28;20052;-72
2022/07/30 08:41:37;;;;;;;6.78;4.97;;;;;;;29.61;34.90;101484.13;5013714;28;20572;-72
2022/07/30 08:44:10;;;;;;;6.20;4.55;;;;;;;29.76;34.31;101486.75;5029016;28;20052;-72
2022/07/30 08:46:41;;;;;;;6.28;4.80;;;;;;;29.86;34.48;101493.66;5029754;28;20038;-72
2022/07/30 08:49:36;;;;;;;6.60;4.60;;;;;;;29.98;34.44;101493.91;5030004;28;20454;-72
2022/07/30 08:52:07;;;;;;;6.82;4.53;;;;;;;30.10;34.02;101489.38;5012879;28;20060;-72
2022/07/30 08:54:55;;;;;;;7.05;4.68;;;;;;;30.16;33.70;101502.53;5029517;28;20092;-72
2022/07/30 08:57:24;;;;;;;9.45;4.97;;;;;;;30.27;33.65;101492.63;5046147;28;20053;-72
2022/07/30 08:59:54;;;;;;;7.75;4.60;;;;;;;30.36;33.07;101493.25;5045357;28;20046;-72
2022/07/30 09:02:31;;;;;;;6.90;4.60;;;;;;;30.40;32.98;101488.94;5031170;28;20056;-72
2022/07/30 09:05:04;;;;;;;5.93;4.28;;;;;;;30.44;33.14;101488.28;5011330;28;20041;-72
2022/07/30 09:07:33;;;;;;;7.35;4.10;;;;;;;30.49;33.17;101494.09;5013127;28;20145;-72
2022/07/30 09:10:03;;;;;;;6.45;4.15;;;;;;;30.57;32.96;101493.03;5011830;28;20116;-72
2022/07/30 09:12:38;;;;;;;6.72;3.80;;;;;;;30.64;32.62;101489.13;5012796;28;20057;-72
2022/07/30 09:15:10;;;;;;;6.43;3.97;;;;;;;30.73;32.09;101502.91;5028695;28;20455;-72
2022/07/30 09:17:55;;;;;;;5.93;3.95;;;;;;;30.79;31.92;101497.31;5013254;28;20053;-72
2022/07/30 09:20:28;;;;;;;5.60;3.78;;;;;;;30.83;32.26;101498.59;5027380;28;20396;-72
2022/07/30 09:22:59;;;;;;;6.80;4.13;;;;;;;30.86;32.20;101495.34;5046195;28;20049;-73
2022/07/30 09:25:49;;;;;;;6.32;3.78;;;;;;;30.92;31.98;101496.41;5029252;28;20056;-73
2022/07/30 09:28:36;;;;;;;5.63;3.55;;;;;;;30.94;31.45;101499.84;5029751;28;20096;-72
2022/07/30 09:31:15;;;;;;;5.18;3.20;;;;;;;30.99;31.01;101500.03;5030086;28;20045;-72
2022/07/30 09:34:02;;;;;;;5.72;3.17;;;;;;;30.97;31.20;101493.78;5030061;28;20045;-73
2022/07/30 09:37:01;;;;;;;7.43;3.60;;;;;;;30.99;31.24;101495.28;4993773;28;20393;-72
2022/07/30 09:39:52;;;;;;;7.88;3.60;;;;;;;30.98;30.86;101489.91;5028862;28;20054;-72
2022/07/30 09:42:45;;;;;;;6.80;3.33;;;;;;;30.95;30.91;101491.22;5030381;28;20143;-72
2022/07/30 09:45:15;;;;;;;5.13;3.00;;;;;;;30.96;30.88;101492.09;5026531;28;20045;-72
2022/07/30 09:47:49;;;;;;;5.47;3.30;;;;;;;30.97;30.55;101490.97;5012945;28;20474;-72
2022/07/30 09:50:20;;;;;;;6.60;3.42;;;;;;;30.99;30.63;101486.88;5027886;28;20056;-72
2022/07/30 09:53:07;;;;;;;5.70;2.95;;;;;;;31.06;29.73;101491.59;5105602;23;20045;-86
2022/07/30 09:55:38;;;;;;;5.00;2.88;;;;;;;31.07;30.28;101497.03;5067452;28;20095;-84
2022/07/30 09:58:12;;;;;;;4.10;2.80;;;;;;;31.15;30.18;101487.50;5075809;28;20079;-84
2022/07/30 10:00:58;;;;;;;5.00;2.80;;;;;;;31.25;29.61;101496.31;5089881;28;20105;-85
2022/07/30 10:04:04;;;;;;;5.32;2.67;;;;;;;31.31;29.97;101498.22;5049324;28;20056;-85
2022/07/30 10:06:53;;;;;;;4.55;2.65;;;;;;;31.35;29.79;101493.88;5061018;28;20541;-85
2022/07/30 10:09:45;;;;;;;4.30;2.92;;;;;;;31.42;29.61;101486.28;5042474;28;20103;-85
2022/07/30 10:12:15;;;;;;;4.85;2.90;;;;;;;31.53;29.65;101495.94;5057679;28;20113;-84
2022/07/30 10:14:49;;;;;;;5.68;2.67;;;;;;;31.59;29.23;101489.44;5056437;28;20053;-85
2022/07/30 10:17:20;;;;;;;4.32;2.85;;;;;;;31.65;29.39;101488.56;5052699;28;20055;-84
2022/07/30 10:20:10;;;;;;;5.72;2.90;;;;;;;31.76;28.41;101487.84;5065169;28;20091;-85
2022/07/30 10:22:58;;;;;;;4.20;2.25;;;;;;;31.83;28.57;101487.78;5052931;28;20076;-84
2022/07/30 10:25:37;;;;;;;4.47;2.30;;;;;;;31.92;28.01;101492.03;5044668;28;20033;-86
2022/07/30 10:28:44;;;;;;;4.57;2.22;;;;;;;31.98;27.75;101488.31;5054879;28;20045;-86
2022/07/30 10:31:15;;;;;;;3.78;2.10;;;;;;;32.07;27.97;101490.63;5049310;28;20045;-85
2022/07/30 10:34:03;;;;;;;4.28;2.20;;;;;;;32.14;27.57;101493.38;5040043;28;20061;-86
2022/07/30 10:36:34;;;;;;;4.57;2.15;;;;;;;32.23;26.88;101494.84;5043463;28;20079;-85
2022/07/30 10:39:03;;;;;;;5.88;2.30;;;;;;;32.27;26.64;101492.44;5060324;28;20041;-84
2022/07/30 10:41:45;;;;;;;3.42;2.10;;;;;;;32.36;26.02;101499.50;5050141;28;20052;-85
2022/07/30 10:44:41;;;;;;;4.55;2.22;;;;;;;32.40;26.38;101495.97;5037705;28;20057;-85
2022/07/30 10:47:13;;;;;;;4.63;2.47;;;;;;;32.47;26.80;101499.59;5049677;28;20139;-85
2022/07/30 10:50:08;;;;;;;4.18;2.20;;;;;;;32.53;25.97;101495.00;5036467;28;20073;-85
2022/07/30 10:52:50;;;;;;;4.63;2.15;;;;;;;32.62;25.75;101496.41;5041935;28;20059;-85
2022/07/30 10:55:22;;;;;;;2.80;1.95;;;;;;;32.65;26.21;101490.31;5055469;28;20065;-85
2022/07/30 10:58:08;;;;;;;3.03;1.90;;;;;;;32.71;25.21;101485.75;5062312;28;20661;-86
2022/07/30 11:00:58;;;;;;;4.18;2.08;;;;;;;32.75;24.84;101478.56;5043341;28;20080;-85
2022/07/30 11:03:28;;;;;;;4.47;2.13;;;;;;;32.83;25.30;101481.06;5048817;28;20507;-85
2022/07/30 11:06:33;;;;;;;5.13;2.28;;;;;;;32.86;25.17;101477.81;5058323;28;20135;-84
2022/07/30 11:09:35;;;;;;;3.47;1.92;;;;;;;32.90;24.85;101469.75;5048070;28;20060;-84
2022/07/30 11:12:10;;;;;;;2.92;1.95;;;;;;;32.94;25.60;101479.44;5055637;28;20048;-85
2022/07/30 11:14:58;;;;;;;3.78;2.20;;;;;;;32.99;24.71;101469.19;5036574;28;20081;-85
2022/07/30 11:17:59;;;;;;;;;;;;;;;32.70;26.15;101472.75;5044154;28;20069;-85
2022/07/30 11:20:28;;;;;;;2.88;1.75;;;;;;;32.98;25.22;101472.22;5040536;28;19921;-85
2022/07/30 11:23:10;;;;;;;2.67;1.60;;;;;;;33.07;23.59;101470.81;5045140;28;20083;-84
2022/07/30 11:25:46;;;;;;;3.38;1.92;;;;;;;33.10;23.26;101462.78;5053011;28;20049;-84
2022/07/30 11:28:36;;;;;;;3.17;1.60;;;;;;;33.13;23.25;101469.88;5054627;28;20044;-85
2022/07/30 11:31:24;;;;;;;3.10;1.65;;;;;;;33.13;23.71;101464.25;5054529;28;20052;-84
2022/07/30 11:34:29;;;;;;;3.10;1.77;;;;;;;33.18;22.76;101468.09;5047820;28;20080;-84
2022/07/30 11:37:06;;;;;;;2.90;1.80;;;;;;;33.23;22.79;101467.41;5053789;28;20052;-86
2022/07/30 11:40:09;;;;;;;2.80;1.60;;;;;;;33.22;22.80;101465.66;5064423;28;20064;-85
2022/07/30 11:42:40;;;;;;;3.30;1.63;;;;;;;33.26;23.20;101472.56;5033427;28;20056;-85
2022/07/30 11:45:31;;;;;;;2.97;1.75;;;;;;;33.27;22.95;101468.66;5054078;28;20324;-85
2022/07/30 11:48:00;;;;;;;4.43;2.30;;;;;;;33.30;23.08;101470.97;5050149;28;20045;-84
2022/07/30 11:50:31;;;;;;;3.22;1.95;;;;;;;33.37;22.71;101468.06;5054833;28;20128;-85
2022/07/30 11:53:01;;;;;;;3.28;2.03;;;;;;;33.37;22.97;101468.91;5057665;28;20045;-84
2022/07/30 11:55:32;;;;;;;3.63;2.00;;;;;;;33.41;23.28;101466.50;5053600;28;20056;-85
2022/07/30 11:58:03;;;;;;;4.43;2.35;;;;;;;33.45;22.42;101473.34;5053677;28;20499;-85
2022/07/30 12:00:37;;;;;;;3.60;1.88;;;;;;;33.44;22.16;101466.88;5056717;28;20042;-86
2022/07/30 12:03:13;;;;;;;3.95;2.15;;;;;;;33.47;21.66;101474.00;5054995;28;20460;-86
2022/07/30 12:05:42;;;;;;;3.33;2.20;;;;;;;33.46;22.65;101477.91;5049297;28;20092;-86